createdAt,value
2023-05-02T00:06:37.866Z,78
2023-05-02T00:14:53.272Z,76.5
2023-05-02T00:23:08.689Z,77
2023-05-02T00:31:24.085Z,79.5
2023-05-02T00:39:39.443Z,79
2023-05-02T00:47:54.846Z,80.5
2023-05-02T00:56:10.219Z,81
2023-05-02T01:04:25.629Z,80.5
2023-05-02T01:12:41.037Z,77
2023-05-02T01:20:56.440Z,80.5
2023-05-02T01:29:11.837Z,79.5
2023-05-02T01:37:27.146Z,80.5
2023-05-02T01:45:42.510Z,81
2023-05-02T01:53:57.880Z,81.5
2023-05-02T02:02:13.268Z,81.5
2023-05-02T02:10:28.621Z,81
2023-05-02T02:18:44.009Z,80.5
2023-05-02T02:26:59.376Z,81
2023-05-02T02:35:14.752Z,81
2023-05-02T02:43:30.121Z,80.5
2023-05-02T02:51:45.479Z,81
2023-05-02T03:00:00.868Z,81.5
2023-05-02T03:08:16.214Z,82
2023-05-02T03:16:31.572Z,81
2023-05-02T03:24:46.946Z,81
2023-05-02T03:33:02.325Z,79
2023-05-02T03:41:17.728Z,78.5
2023-05-02T03:49:33.014Z,78.5
2023-05-02T03:57:48.374Z,79
2023-05-02T04:06:03.696Z,79.5
2023-05-02T04:14:19.052Z,79
2023-05-02T04:22:34.406Z,79.5
2023-05-02T04:30:49.750Z,80
2023-05-02T04:39:05.108Z,78.5
2023-05-02T04:47:20.441Z,78.5
2023-05-02T04:55:35.841Z,78.5
2023-05-02T05:03:51.164Z,77
2023-05-02T05:12:06.551Z,76.5
2023-05-02T05:20:22.057Z,77
2023-05-02T05:28:37.229Z,76
2023-05-02T05:36:52.704Z,75
2023-05-02T05:45:08.030Z,75
2023-05-02T05:53:23.364Z,75.5
2023-05-02T06:01:38.781Z,75.5
2023-05-02T06:09:54.274Z,76.5
2023-05-02T06:18:09.676Z,66
2023-05-02T06:26:25.456Z,59
2023-05-02T06:34:41.240Z,61.5
2023-05-02T06:42:57.020Z,57
2023-05-02T06:51:13.009Z,60.5
2023-05-02T06:59:28.909Z,49.5
2023-05-02T07:07:44.808Z,48
2023-05-02T07:16:00.741Z,49.5
2023-05-02T07:24:16.799Z,47.5
2023-05-02T07:32:32.779Z,43
2023-05-02T07:40:48.774Z,48
2023-05-02T07:49:04.645Z,45.5
2023-05-02T07:57:20.560Z,46.5
2023-05-02T08:05:36.513Z,43.5
2023-05-02T08:13:58.419Z,42.5
2023-05-02T08:22:08.454Z,35.5
2023-05-02T08:30:24.480Z,35
2023-05-02T08:38:40.539Z,38
2023-05-02T08:46:56.734Z,36
2023-05-02T08:55:12.968Z,31.5
2023-05-02T09:03:29.169Z,39
2023-05-02T09:11:45.479Z,36
2023-05-02T09:20:01.857Z,41.5
2023-05-02T09:28:18.546Z,41.5
2023-05-02T09:36:35.620Z,36
2023-05-02T09:44:52.751Z,42
2023-05-02T09:53:09.780Z,40
2023-05-02T10:01:27.216Z,41
2023-05-02T10:09:44.380Z,41
2023-05-02T10:18:01.820Z,44.5
2023-05-02T10:26:19.197Z,43
2023-05-02T10:34:36.560Z,39.5
2023-05-02T10:42:53.755Z,39
2023-05-02T10:51:10.477Z,39
2023-05-02T10:59:26.834Z,39.5
2023-05-02T11:07:43.143Z,41.5
2023-05-02T11:15:59.165Z,46
2023-05-02T11:24:14.995Z,38
2023-05-02T11:32:31.095Z,41.5
2023-05-02T11:40:47.016Z,44
2023-05-02T11:49:02.782Z,46.5
2023-05-02T11:57:18.584Z,44
2023-05-02T12:05:34.299Z,44.5
2023-05-02T12:13:50.099Z,42.5
2023-05-02T12:22:11.787Z,45.5
2023-05-02T12:30:21.613Z,41.5
2023-05-02T12:38:43.168Z,42.5
2023-05-02T12:46:52.917Z,46
2023-05-02T12:55:08.466Z,47.5
2023-05-02T13:03:24.268Z,43.5
2023-05-02T13:11:39.979Z,45
2023-05-02T13:19:55.580Z,46.5
2023-05-02T13:28:11.119Z,45.5
2023-05-02T13:36:26.980Z,44.5
2023-05-02T13:44:42.679Z,44
2023-05-02T13:52:58.312Z,45
2023-05-02T14:01:13.972Z,44.5
2023-05-02T14:09:29.645Z,44
2023-05-02T14:17:45.275Z,44
2023-05-02T14:34:14.527Z,43
2023-05-02T14:42:32.258Z,44.5
2023-05-02T14:50:47.703Z,43
2023-05-02T14:59:03.398Z,43.5
2023-05-02T15:07:19.075Z,41.5
2023-05-02T15:15:34.743Z,43.5
2023-05-02T15:23:50.163Z,43.5
2023-05-02T15:32:05.871Z,44
2023-05-02T15:40:21.475Z,41
2023-05-02T15:48:37.045Z,42.5
2023-05-02T15:56:52.554Z,41.5
2023-05-02T16:05:08.282Z,41.5
2023-05-02T16:13:23.812Z,42
2023-05-02T16:21:39.378Z,40
2023-05-02T16:29:55.067Z,42
2023-05-02T16:38:10.585Z,44
2023-05-02T16:46:26.150Z,41.5
2023-05-02T16:54:41.809Z,42.5
2023-05-02T17:02:57.357Z,44
2023-05-02T17:11:12.905Z,46
2023-05-02T17:19:28.409Z,46
2023-05-02T17:27:44.002Z,47
2023-05-02T17:35:59.553Z,44.5
2023-05-02T17:44:15.090Z,44.5
2023-05-02T17:52:30.660Z,45.5
2023-05-02T18:00:46.155Z,46.5
2023-05-02T18:09:01.789Z,48
2023-05-02T18:17:17.234Z,49
2023-05-02T18:25:32.703Z,51
2023-05-02T18:33:48.225Z,52
2023-05-02T18:42:03.876Z,53
2023-05-02T18:50:19.209Z,53.5
2023-05-02T18:58:34.873Z,53.5
2023-05-02T19:06:50.310Z,53
2023-05-02T19:15:05.644Z,54
2023-05-02T19:23:21.250Z,52.5
2023-05-02T19:31:36.571Z,51.5
2023-05-02T19:39:52.195Z,52.5
2023-05-02T19:48:07.477Z,52
2023-05-02T19:56:23.052Z,51.5
2023-05-02T20:04:38.366Z,52
2023-05-02T20:12:53.942Z,51
2023-05-02T20:21:09.396Z,50.5
2023-05-02T20:29:24.775Z,52
2023-05-02T20:37:40.108Z,52
2023-05-02T20:45:55.653Z,52.5
2023-05-02T20:54:11.094Z,53
2023-05-02T21:02:26.473Z,54
2023-05-02T21:10:41.802Z,53.5
2023-05-02T21:18:57.359Z,54
2023-05-02T21:27:12.858Z,54
2023-05-02T21:35:28.154Z,55
2023-05-02T21:43:43.422Z,55.5
2023-05-02T21:51:59.112Z,57
2023-05-02T22:00:14.243Z,57
2023-05-02T22:08:29.775Z,58.5
2023-05-02T22:16:45.113Z,58.5
2023-05-02T22:25:00.602Z,59.5
2023-05-02T22:33:16.017Z,59
2023-05-02T22:41:31.377Z,60
2023-05-02T22:49:46.629Z,60.5
2023-05-02T22:58:02.173Z,62
2023-05-02T23:06:17.424Z,63
2023-05-02T23:14:32.818Z,64
2023-05-02T23:22:48.229Z,64
2023-05-02T23:31:03.777Z,64.5
2023-05-02T23:39:19.238Z,65
2023-05-02T23:47:34.535Z,65.5
2023-05-02T23:55:49.874Z,66
